createdAt,value
2023-01-25T00:04:00.600Z,1.6
2023-01-25T00:09:55.227Z,1.6
2023-01-25T00:15:10.381Z,1.6
2023-01-25T00:20:43.659Z,1.6
2023-01-25T00:26:30.299Z,1.5
2023-01-25T00:31:45.806Z,1.5
2023-01-25T00:37:19.438Z,1.4
2023-01-25T00:43:01.940Z,1.4
2023-01-25T00:48:43.715Z,1.4
2023-01-25T00:54:11.924Z,1.3
2023-01-25T00:59:46.925Z,1.3
2023-01-25T01:05:13.362Z,1.4
2023-01-25T01:10:48.198Z,1.4
2023-01-25T01:16:19.476Z,1.4
2023-01-25T01:21:48.573Z,1.4
2023-01-25T01:27:20.392Z,1.4
2023-01-25T01:33:17.160Z,1.4
2023-01-25T01:38:32.338Z,1.4
2023-01-25T01:44:10.811Z,1.4
2023-01-25T01:49:42.617Z,1.4
2023-01-25T01:55:27.200Z,1.4
2023-01-25T02:00:50.531Z,1.3
2023-01-25T02:06:18.389Z,1.2
2023-01-25T02:11:58.228Z,1.2
2023-01-25T02:17:28.438Z,1.2
2023-01-25T02:23:13.102Z,1.2
2023-01-25T02:28:40.867Z,1.2
2023-01-25T02:34:08.582Z,1.1
2023-01-25T02:40:01.840Z,1.2
2023-01-25T02:45:14.085Z,1.2
2023-01-25T02:50:45.355Z,1.1
2023-01-25T02:56:30.500Z,1.1
2023-01-25T03:01:56.611Z,1.2
2023-01-25T03:07:50.161Z,1.2
2023-01-25T03:13:12.933Z,1.1
2023-01-25T03:18:31.327Z,1.2
2023-01-25T03:24:27.553Z,1.1
2023-01-25T03:29:50.832Z,1.1
2023-01-25T03:35:16.200Z,1
2023-01-25T03:41:04.947Z,1
2023-01-25T03:46:38.397Z,1
2023-01-25T03:51:50.422Z,1.1
2023-01-25T03:57:23.383Z,1
2023-01-25T04:03:09.746Z,1
2023-01-25T04:08:42.907Z,0.9
2023-01-25T04:14:15.519Z,1
2023-01-25T04:19:46.487Z,1
2023-01-25T04:25:23.671Z,0.9
2023-01-25T04:30:52.753Z,0.9
2023-01-25T04:36:28.764Z,0.9
2023-01-25T04:42:07.057Z,0.9
2023-01-25T04:47:27.483Z,0.9
2023-01-25T04:52:54.385Z,0.8
2023-01-25T04:58:27.000Z,0.8
2023-01-25T05:04:05.038Z,0.8
2023-01-25T05:09:50.950Z,0.8
2023-01-25T05:15:05.402Z,0.8
2023-01-25T05:20:57.224Z,0.8
2023-01-25T05:26:24.470Z,0.8
2023-01-25T05:32:03.796Z,0.7
2023-01-25T05:37:30.988Z,0.7
2023-01-25T05:42:54.469Z,0.7
2023-01-25T05:48:40.828Z,0.6
2023-01-25T05:53:58.643Z,0.6
2023-01-25T05:59:37.215Z,0.6
2023-01-25T06:05:10.155Z,0.7
2023-01-25T06:10:35.130Z,0.7
2023-01-25T06:16:29.430Z,0.6
2023-01-25T06:21:55.372Z,0.7
2023-01-25T06:27:17.889Z,0.7
2023-01-25T06:32:49.332Z,0.7
2023-01-25T06:38:25.320Z,0.6
2023-01-25T06:43:58.688Z,0.6
2023-01-25T06:49:31.562Z,0.6
2023-01-25T06:54:59.509Z,0.7
2023-01-25T07:00:51.773Z,0.6
2023-01-25T07:06:30.392Z,0.6
2023-01-25T07:11:52.289Z,0.6
2023-01-25T07:17:33.953Z,0.6
2023-01-25T07:23:05.564Z,0.7
2023-01-25T07:28:28.863Z,0.7
2023-01-25T07:33:54.932Z,0.7
2023-01-25T07:39:32.496Z,0.7
2023-01-25T07:45:08.640Z,0.7
2023-01-25T07:50:30.943Z,0.7
2023-01-25T07:56:28.772Z,0.7
2023-01-25T08:01:37.682Z,0.7
2023-01-25T08:07:09.699Z,0.7
2023-01-25T08:13:01.864Z,0.7
2023-01-25T08:18:42.131Z,0.7
2023-01-25T08:23:51.073Z,0.7
2023-01-25T08:29:20.692Z,0.7
2023-01-25T08:35:15.007Z,0.7
2023-01-25T08:40:50.494Z,0.8
2023-01-25T08:46:14.098Z,0.8
2023-01-25T08:51:59.812Z,0.9
2023-01-25T08:57:34.219Z,1
2023-01-25T09:02:41.608Z,1
2023-01-25T09:08:19.219Z,1
2023-01-25T09:13:51.779Z,1.1
2023-01-25T09:19:41.106Z,1.1
2023-01-25T09:25:18.949Z,1.2
2023-01-25T09:30:40.981Z,1.2
2023-01-25T09:36:22.985Z,1.2
2023-01-25T09:42:03.489Z,1.3
2023-01-25T09:47:18.895Z,1.3
2023-01-25T09:52:49.184Z,1.3
2023-01-25T09:58:18.097Z,1.3
2023-01-25T10:04:07.698Z,1.4
2023-01-25T10:09:39.586Z,1.4
2023-01-25T10:15:18.362Z,1.4
2023-01-25T10:20:34.251Z,1.5
2023-01-25T10:26:14.173Z,1.4
2023-01-25T10:31:58.871Z,1.4
2023-01-25T10:37:29.930Z,1.4
2023-01-25T10:43:12.652Z,1.4
2023-01-25T10:48:21.921Z,1.4
2023-01-25T10:54:18.635Z,1.4
2023-01-25T10:59:44.103Z,1.4
2023-01-25T11:05:24.695Z,1.3
2023-01-25T11:10:35.854Z,1.4
2023-01-25T11:16:32.472Z,1.4
2023-01-25T11:22:10.526Z,1.4
2023-01-25T11:27:34.749Z,1.4
2023-01-25T11:33:02.353Z,1.4
2023-01-25T11:38:26.976Z,1.3
2023-01-25T11:44:00.124Z,1.4
2023-01-25T11:49:41.393Z,1.3
2023-01-25T11:55:19.072Z,1.4
2023-01-25T12:00:52.634Z,1.4
2023-01-25T12:06:25.095Z,1.4
2023-01-25T12:11:48.473Z,1.4
2023-01-25T12:17:37.963Z,1.4
2023-01-25T12:23:11.243Z,1.4
2023-01-25T12:28:57.497Z,1.4
2023-01-25T12:34:28.266Z,1.4
2023-01-25T12:39:48.468Z,1.5
2023-01-25T12:45:14.979Z,1.5
2023-01-25T12:50:47.478Z,1.4
2023-01-25T12:56:36.578Z,1.3
2023-01-25T13:02:12.086Z,1.3
2023-01-25T13:07:46.534Z,1.3
2023-01-25T13:12:58.936Z,1.3
2023-01-25T13:18:54.663Z,1.3
2023-01-25T13:24:10.350Z,1.3
2023-01-25T13:29:50.438Z,1.4
2023-01-25T13:35:14.871Z,1.4
2023-01-25T13:40:56.205Z,1.4
2023-01-25T13:46:26.576Z,1.4
2023-01-25T13:52:19.969Z,1.4
2023-01-25T13:57:40.495Z,1.4
2023-01-25T14:03:24.783Z,1.4
2023-01-25T14:14:32.918Z,1.4
2023-01-25T14:20:07.515Z,1.4
2023-01-25T14:25:19.455Z,1.4
2023-01-25T14:31:03.269Z,1.5
2023-01-25T14:36:35.371Z,1.4
2023-01-25T14:42:01.198Z,1.4
2023-01-25T14:47:48.009Z,1.4
2023-01-25T14:53:05.264Z,1.4
2023-01-25T14:59:01.515Z,1.4
2023-01-25T15:04:22.291Z,1.4
2023-01-25T15:09:44.163Z,1.4
2023-01-25T15:15:39.044Z,1.3
2023-01-25T15:21:16.229Z,1.3
2023-01-25T15:26:50.377Z,1.3
2023-01-25T15:31:57.631Z,1.3
2023-01-25T15:37:35.663Z,1.3
2023-01-25T15:43:22.954Z,1.3
2023-01-25T15:48:44.672Z,1.3
2023-01-25T15:54:16.700Z,1.2
2023-01-25T15:59:44.601Z,1.1
2023-01-25T16:05:22.904Z,1.2
2023-01-25T16:11:15.998Z,1.2
2023-01-25T16:16:46.818Z,1.2
2023-01-25T16:22:24.116Z,1.2
2023-01-25T16:27:37.926Z,1.2
2023-01-25T16:33:25.011Z,1.2
2023-01-25T16:38:50.641Z,1.1
2023-01-25T16:44:18.887Z,1.1
2023-01-25T16:50:07.528Z,1.1
2023-01-25T16:55:22.371Z,1.1
2023-01-25T17:00:55.212Z,1.1
2023-01-25T17:06:48.496Z,1.1
2023-01-25T17:12:09.407Z,1.1
2023-01-25T17:17:51.688Z,1.1
2023-01-25T17:23:16.332Z,1.1
2023-01-25T17:28:51.355Z,1.1
2023-01-25T17:34:32.575Z,1.1
2023-01-25T17:40:00.192Z,1.1
2023-01-25T17:45:44.713Z,1
2023-01-25T17:51:01.759Z,1
2023-01-25T17:56:55.407Z,1
2023-01-25T18:07:56.643Z,0.9
2023-01-25T18:13:27.332Z,1
2023-01-25T18:19:05.283Z,0.9
2023-01-25T18:24:31.895Z,0.9
2023-01-25T18:30:05.100Z,0.9
2023-01-25T18:35:38.986Z,0.9
2023-01-25T18:41:05.902Z,0.9
2023-01-25T18:46:36.659Z,0.9
2023-01-25T18:57:53.888Z,0.9
2023-01-25T19:03:05.234Z,0.9
2023-01-25T19:08:58.021Z,1
2023-01-25T19:14:34.414Z,0.9
2023-01-25T19:19:57.808Z,0.9
2023-01-25T19:25:20.507Z,0.8
2023-01-25T19:31:08.768Z,0.8
2023-01-25T19:36:50.037Z,0.8
2023-01-25T19:42:18.980Z,0.8
2023-01-25T19:48:00.335Z,0.8
2023-01-25T19:53:26.898Z,0.8
2023-01-25T19:58:49.646Z,0.7
2023-01-25T20:04:25.976Z,0.8
2023-01-25T20:09:55.156Z,0.8
2023-01-25T20:15:18.860Z,0.7
2023-01-25T20:21:13.562Z,0.7
2023-01-25T20:26:49.994Z,0.7
2023-01-25T20:31:57.696Z,0.7
2023-01-25T20:37:49.303Z,0.7
2023-01-25T20:43:19.464Z,0.7
2023-01-25T20:49:01.868Z,0.7
2023-01-25T20:54:16.017Z,0.6
2023-01-25T20:59:56.471Z,0.7
2023-01-25T21:05:15.253Z,0.6
2023-01-25T21:10:51.375Z,0.5
2023-01-25T21:16:36.782Z,0.6
2023-01-25T21:22:10.146Z,0.7
2023-01-25T21:27:40.218Z,0.6
2023-01-25T21:33:04.504Z,0.6
2023-01-25T21:38:33.777Z,0.5
2023-01-25T21:44:18.778Z,0.5
2023-01-25T21:49:37.251Z,0.5
2023-01-25T21:55:16.670Z,0.5
2023-01-25T22:01:10.493Z,0.5
2023-01-25T22:06:26.442Z,0.5
2023-01-25T22:11:52.627Z,0.5
2023-01-25T22:17:30.875Z,0.5
2023-01-25T22:23:08.675Z,0.6
2023-01-25T22:28:36.821Z,0.6
2023-01-25T22:34:02.352Z,0.5
2023-01-25T22:39:47.719Z,0.5
2023-01-25T22:45:16.992Z,0.5
2023-01-25T22:50:45.928Z,0.6
2023-01-25T22:56:39.510Z,0.6
2023-01-25T23:02:01.652Z,0.6
2023-01-25T23:07:27.701Z,0.6
2023-01-25T23:12:54.696Z,0.6
2023-01-25T23:18:31.466Z,0.6
2023-01-25T23:24:18.734Z,0.5
2023-01-25T23:29:40.791Z,0.5
2023-01-25T23:35:15.130Z,0.5
2023-01-25T23:40:54.272Z,0.5
2023-01-25T23:46:12.215Z,0.5
2023-01-25T23:51:46.715Z,0.5
2023-01-25T23:57:23.300Z,0.5
